Olympia, Washington
Current Conditions -  °F | °C
As of 9:54 PM on Friday 19 Dec 2014 (Local Time) from KOLM Reporting Station
Overcast Overcast  
Wind Chill: 44°   Ceiling: 11000
Heat Index: 47°   Visibility: 10mi
Dew Point: 39°   Wind: 7mph
Humidity: 74%   Direction: 210°SSW
Pressure: 29.87"   Gusts: NA
Location:  47.04°N, 122.89°W
Report Text: KOLM 200554Z AUTO 21006KT 10SM OVC110 08/04 A2987 RMK AO2 SLP116 60000 T00830039 10089 20067 58023
Loading
Personal Weather Stations






























Interactive Weather Map New forecast layout! Learn more

10-Day Weather Forecast

Advertisements
Track Severe Weather on mobile